Salt Lake City, Utah
Traffic Map
Current Weather Conditions
Salt Lake City, Utah
Overcast Haze
Overcast

Feels Like: 5°
Wind Chill: Ceiling: 3900
Heat Index: Visibility: 5mi
Dew Point: Wind: 5mph
Humidity: 76% Direction: 170° (S)
Pressure: 30.25in Gusts: 0mph
Raw Report DataKSLC 142254Z 17004KT 5SM HZ BKN039 BKN050 OVC060 06/02 A3025 RMK AO2 SLP240 SH DSNT SE-S T00610022
Traffic Incident Summary
Active as of:
Severity:
Category:
InformationThere was an issue retrieving the traffic information for this location. Please try a different location or try again shortly.
Advertisements
Track Severe Weather on mobile